Flight Track Log - Related Links

Times and Time Zones

All times are in EDT time to prevent confusion due to time zone crossing. See the LOF3416 flight status page for this flight to view local times or setup timezone preferences in your user account.


Time Position Orientation Groundspeed Altitude Reporting Facility
EDT Latitude Longitude Course Direction KTS MPH feet Rate Location/Type
Sun 06:17:13 PM 41.9500 -87.9000 206° Southwest 172 198 1,200  Level Chicago TRACON
Sun 06:18:13 PM 41.9000 -87.9333 206° Southwest 194 223 3,600 2,193 Climbing Chicago TRACON
Sun 06:19:38 PM 41.8181 -87.9756 201° Southwest 212 244 6,500 2,122 Climbing Chicago Center
Sun 06:20:40 PM 41.7567 -88.0064 201° Southwest 234 269 8,800 1,790 Climbing Chicago Center
Sun 06:21:42 PM 41.6900 -88.0411 201° Southwest 259 298 10,200 1,440 Climbing Chicago Center
Sun 06:22:45 PM 41.6189 -88.0817 203° Southwest 277 319 11,800 1,632 Climbing Chicago Center
Sun 06:23:47 PM 41.5311 -88.1314 203° Southwest 289 333 13,600 1,500 Climbing Chicago Center
Sun 06:24:49 PM 41.4561 -88.1597 196° South 290 334 14,900 1,161 Climbing Chicago Center
Sun 06:25:51 PM 41.3750 -88.1747 188° South 303 349 16,000 1,065 Climbing Chicago Center
Sun 06:26:53 PM 41.2928 -88.1900 188° South 306 352 17,100 1,016 Climbing Chicago Center
Sun 06:27:55 PM 41.1900 -88.2131 190° South 314 361 18,100 919 Climbing Chicago Center
Sun 06:28:57 PM 41.1044 -88.2314 189° South 314 361 19,000 774 Climbing Chicago Center
Sun 06:29:59 PM 41.0164 -88.2508 189° South 320 368 19,700 726 Climbing Chicago Center
Sun 06:31:01 PM 40.9264 -88.2719 190° South 328 377 20,500 871 Climbing Chicago Center
Sun 06:32:03 PM 40.8175 -88.2975 190° South 334 384 21,500 871 Climbing Chicago Center
Sun 06:33:05 PM 40.7278 -88.3192 190° South 330 380 22,300 726 Climbing Chicago Center
Sun 06:34:07 PM 40.6372 -88.3403 190° South 332 382 23,000 339 Climbing Chicago Center
Sun 06:35:09 PM 40.5681 -88.4306 225° Southwest 355 409 23,000 384 Level Chicago Center
Sun 06:36:12 PM 40.5058 -88.5336 232° Southwest 360 414 23,800 912 Climbing Chicago Center
Sun 06:37:14 PM 40.4344 -88.6456 230° Southwest 354 407 24,900 968 Climbing Chicago Center
Sun 06:38:16 PM 40.3647 -88.7297 223° Southwest 343 395 25,800 871 Climbing Chicago Center
Sun 06:39:18 PM 40.2958 -88.8139 223° Southwest 338 389 26,700 871 Climbing Chicago Center
Sun 06:40:20 PM 40.2258 -88.8950 222° Southwest 336 387 27,600 629 Climbing Chicago Center
Sun 06:41:22 PM 40.1583 -88.9769 223° Southwest 331 381 28,000 194 Climbing Chicago Center
Sun 06:42:24 PM 40.0844 -89.0647 222° Southwest 352 405 28,000  Level Chicago Center
Sun 06:43:18 PM 40.0078 -89.1542 222° Southwest 362 417 28,000  Level Kansas City Center
Sun 06:44:23 PM 39.9289 -89.2478 222° Southwest 377 434 28,000  Level Kansas City Center
Sun 06:45:23 PM 39.8514 -89.3389 222° Southwest 376 433 28,000  Level Kansas City Center
Sun 06:46:24 PM 39.7744 -89.4275 222° Southwest 371 427 28,000  Level Kansas City Center
Sun 06:47:28 PM 39.6900 -89.5286 223° Southwest 370 426 28,000  Level Kansas City Center
Sun 06:48:28 PM 39.6131 -89.6161 221° Southwest 368 423 28,000  Level Kansas City Center
Sun 06:49:31 PM 39.5381 -89.7047 222° Southwest 367 422 28,000  Level Kansas City Center
Sun 06:50:32 PM 39.4614 -89.7925 221° Southwest 368 423 28,000  Level Kansas City Center
Sun 06:51:36 PM 39.3694 -89.8992 222° Southwest 371 427 28,000  Level Kansas City Center
Sun 06:52:37 PM 39.2917 -89.9892 222° Southwest 374 430 28,000  Level Kansas City Center
Sun 06:53:40 PM 39.2142 -90.0794 222° Southwest 376 433 28,000  Level Kansas City Center
Sun 06:54:42 PM 39.1361 -90.1694 222° Southwest 378 435 28,000  Level Kansas City Center
Sun 06:55:43 PM 39.0575 -90.2589 221° Southwest 379 436 28,000  Level Kansas City Center
Sun 06:56:47 PM 38.9797 -90.3483 222° Southwest 378 435 28,000  Level Kansas City Center
Sun 06:57:48 PM 38.8986 -90.4422 222° Southwest 372 428 28,000  Level Kansas City Center
Sun 06:58:48 PM 38.8167 -90.5706 231° Southwest 386 444 28,000  Level Kansas City Center
Sun 06:59:52 PM 38.7578 -90.6867 237° Southwest 387 445 28,000  Level Kansas City Center
Sun 07:00:53 PM 38.7067 -90.7861 237° Southwest 384 442 28,000  Level Kansas City Center
Sun 07:01:56 PM 38.6361 -90.9247 237° Southwest 389 448 28,000  Level Kansas City Center
Sun 07:02:58 PM 38.5772 -91.0403 237° Southwest 388 447 28,000  Level Kansas City Center
Sun 07:03:58 PM 38.5175 -91.1561 237° Southwest 390 449 28,000  Level Kansas City Center
Sun 07:05:03 PM 38.4581 -91.2714 237° Southwest 390 449 28,000 -480 Level Kansas City Center
Sun 07:06:03 PM 38.3883 -91.4061 237° Southwest 394 453 27,000 -1,210 Descending Kansas City Center
Sun 07:07:07 PM 38.3292 -91.5186 236° Southwest 380 437 25,500 -1,392 Descending Kansas City Center
Sun 07:08:08 PM 38.2731 -91.6289 237° Southwest 371 427 24,100 -1,230 Descending Kansas City Center
Sun 07:09:09 PM 38.2183 -91.7300 235° Southwest 351 404 23,000 -1,366 Descending Kansas City Center
Sun 07:10:11 PM 38.1639 -91.8333 236° Southwest 348 400 21,300 -1,597 Descending Kansas City Center
Sun 07:11:13 PM 38.1100 -91.9353 236° Southwest 346 398 19,700 -1,707 Descending Kansas City Center
Sun 07:12:14 PM 38.0461 -92.0567 236° Southwest 344 396 17,800 -1,403 Descending Kansas City Center
Sun 07:13:17 PM 38.0053 -92.1344 236° Southwest 332 382 16,800 -871 Descending Kansas City Center
Sun 07:14:18 PM 37.9461 -92.2458 236° Southwest 324 373 16,000 -871 Descending Kansas City Center
Sun 07:15:21 PM 37.8933 -92.3400 235° Southwest 317 365 15,000 -945 Descending Kansas City Center
Sun 07:16:25 PM 37.8450 -92.4317 236° Southwest 310 357 14,000 -484 Descending Kansas City Center
Sun 07:17:25 PM 37.7992 -92.5189 236° Southwest 299 344 14,000  Level Kansas City Center
Sun 07:18:29 PM 37.7511 -92.6086 236° Southwest 305 351 14,000  Level Kansas City Center
Sun 07:19:29 PM 37.7050 -92.6969 237° Southwest 303 349 14,000 -639 Level Kansas City Center
Sun 07:20:31 PM 37.6608 -92.7861 238° Southwest 301 346 12,700 -1,344 Descending Kansas City Center
Sun 07:21:34 PM 37.6164 -92.8733 237° Southwest 297 342 11,200 -1,452 Descending Kansas City Center
Sun 07:22:35 PM 37.5653 -92.9750 238° Southwest 291 335 9,700 -1,306 Descending Kansas City Center
Sun 07:23:38 PM 37.5233 -93.0578 237° Southwest 284 327 8,500 -1,152 Descending Kansas City Center
Sun 07:24:40 PM 37.4811 -93.1408 237° Southwest 282 325 7,300 -1,220 Descending Kansas City Center
Sun 07:25:41 PM 37.4394 -93.2228 237° Southwest 280 322 6,000 -1,279 Descending Kansas City Center
Sun 07:26:42 PM 37.3983 -93.3025 237° Southwest 276 318 4,700 -1,296 Descending Kansas City Center
Sun 07:27:46 PM 37.3572 -93.3814 237° Southwest 272 313 3,300 -823 Descending Kansas City Center
Sun 07:28:46 PM 37.3167 -93.4439 231° Southwest 248 285 3,000 -384 Descending Kansas City Center
Sun 07:29:51 PM 37.2903 -93.4381 170° South 171 197 2,500 -462 Descending Kansas City Center
Sun 07:31:00 PM 37.2457 -93.3886 202° Southwest  Level Estimated

Login

Don't have an account? Register now (free) for customized features, flight alerts, and more!